Time;durP1;ratioP1;P1;durP2;ratioP2;P2;SDS_P1;SDS_P2;PMS_P1;PMS_P2;Temp;Humidity;BMP_temperature;BMP_pressure;BME280_temperature;BME280_humidity;BME280_pressure;Samples;Min_cycle;Max_cycle;Signal;HPM_P1;HPM_P2
2022/08/15 00:00:52;;;;;;;11.73;10.52;;;19.90;79.10;;;;;;5055979;28;20467;-72
2022/08/15 00:03:21;;;;;;;13.38;11.98;;;19.90;79.10;;;;;;5055417;28;20566;-73
2022/08/15 00:05:47;;;;;;;11.20;10.05;;;19.90;79.20;;;;;;5055275;28;20036;-72
2022/08/15 00:08:13;;;;;;;13.27;11.30;;;19.90;79.30;;;;;;5055558;28;20021;-71
2022/08/15 00:10:40;;;;;;;12.65;11.35;;;19.80;79.10;;;;;;5055415;28;20028;-73
2022/08/15 00:13:19;;;;;;;14.70;11.77;;;19.70;79.50;;;;;;5055164;28;20021;-73
2022/08/15 00:15:47;;;;;;;13.00;11.63;;;19.70;79.60;;;;;;5055268;28;20025;-72
2022/08/15 00:18:14;;;;;;;12.98;11.65;;;19.60;79.90;;;;;;5036995;28;20078;-73
2022/08/15 00:20:40;;;;;;;13.00;10.82;;;19.50;80.20;;;;;;5055045;28;20146;-72
2022/08/15 00:23:10;;;;;;;13.80;11.73;;;19.50;80.40;;;;;;5054929;28;20040;-73
2022/08/15 00:25:39;;;;;;;15.40;11.50;;;19.50;80.60;;;;;;5055003;28;20138;-73
2022/08/15 00:28:07;;;;;;;14.48;12.32;;;19.50;80.60;;;;;;5054804;28;20022;-73
2022/08/15 00:30:38;;;;;;;12.35;11.07;;;19.40;80.80;;;;;;5054960;28;20032;-72
2022/08/15 00:33:04;;;;;;;13.15;11.35;;;19.40;80.80;;;;;;5054576;28;20044;-72
2022/08/15 00:35:36;;;;;;;14.70;11.50;;;19.40;80.60;;;;;;5054840;28;20041;-74
2022/08/15 00:38:06;;;;;;;13.40;12.00;;;19.50;80.50;;;;;;5054708;28;20508;-72
2022/08/15 00:41:39;;;;;;;14.32;11.30;;;19.50;80.30;;;;;;5054723;28;20024;-72
2022/08/15 00:43:18;;;;;;;17.05;11.60;;;19.50;80.20;;;;;;5054289;28;20060;-73
2022/08/15 00:45:44;;;;;;;13.63;11.95;;;19.40;80.40;;;;;;5037096;28;20364;-73
2022/08/15 00:50:54;;;;;;;14.50;12.00;;;19.30;80.60;;;;;;5054600;28;20032;-73
2022/08/15 00:53:20;;;;;;;13.25;11.90;;;19.30;80.90;;;;;;5036523;28;20475;-72
2022/08/15 00:55:46;;;;;;;12.48;11.32;;;19.30;81.00;;;;;;5054449;28;20048;-73
2022/08/15 00:58:11;;;;;;;12.82;11.10;;;19.20;80.90;;;;;;5054408;28;20025;-73
2022/08/15 01:00:42;;;;;;;14.20;12.15;;;19.20;81.00;;;;;;5055031;28;20040;-73
2022/08/15 01:03:16;;;;;;;13.02;11.77;;;19.20;81.00;;;;;;5053694;28;20025;-73
2022/08/15 01:05:46;;;;;;;13.95;12.38;;;19.10;81.20;;;;;;5053032;28;20079;-73
2022/08/15 01:08:14;;;;;;;16.55;13.23;;;19.10;81.40;;;;;;5034782;28;20025;-73
2022/08/15 01:10:40;;;;;;;12.93;11.50;;;19.00;81.50;;;;;;5034844;28;20128;-73
2022/08/15 01:13:35;;;;;;;12.80;11.50;;;19.00;81.50;;;;;;5054717;22;20555;-73
2022/08/15 01:16:44;;;;;;;;;;;;;;;;;;;;;
2022/08/15 01:19:57;;;;;;;14.63;11.52;;;19.00;81.60;;;;;;5033463;28;20427;-73
2022/08/15 01:22:44;;;;;;;14.43;12.70;;;19.00;81.50;;;;;;4972795;28;20086;-73
2022/08/15 01:25:30;;;;;;;;;;;;;;;;;;;;;
2022/08/15 01:28:05;;;;;;;13.75;12.27;;;19.00;81.70;;;;;;5055278;22;20041;-72
2022/08/15 01:30:46;;;;;;;15.73;12.30;;;19.00;81.70;;;;;;5015301;28;20049;-72
2022/08/15 01:33:13;;;;;;;12.93;11.63;;;19.00;81.50;;;;;;5033698;28;20027;-71
2022/08/15 01:35:42;;;;;;;13.85;12.52;;;19.00;81.70;;;;;;5033734;28;20059;-71
2022/08/15 01:38:20;;;;;;;12.73;11.43;;;19.10;81.40;;;;;;5014164;28;20440;-72
2022/08/15 01:41:04;;;;;;;14.95;12.43;;;19.20;80.70;;;;;;5013911;28;20579;-71
2022/08/15 01:43:37;;;;;;;13.27;11.88;;;19.20;80.40;;;;;;5013841;28;20040;-72
2022/08/15 01:46:07;;;;;;;12.82;11.57;;;19.20;80.30;;;;;;4996031;28;20381;-72
2022/08/15 01:48:47;;;;;;;12.23;10.88;;;19.20;80.20;;;;;;5013442;28;20022;-71
2022/08/15 01:51:15;;;;;;;18.02;12.05;;;19.10;80.30;;;;;;5013978;28;20033;-71
2022/08/15 01:54:08;;;;;;;18.50;12.40;;;19.10;80.50;;;;;;5013884;28;20022;-72
2022/08/15 01:56:34;;;;;;;13.45;12.15;;;19.00;80.50;;;;;;5013150;28;20502;-73
2022/08/15 01:59:03;;;;;;;15.88;12.63;;;19.00;80.70;;;;;;5013918;28;20076;-72
2022/08/15 02:02:00;;;;;;;13.32;11.30;;;19.00;81.00;;;;;;5013311;28;20053;-71
2022/08/15 02:04:35;;;;;;;12.88;11.57;;;18.90;81.00;;;;;;5001303;28;20038;-71
2022/08/15 02:07:05;;;;;;;18.25;12.55;;;18.90;81.20;;;;;;5013159;28;20113;-71
2022/08/15 02:09:31;;;;;;;20.40;13.10;;;18.80;81.40;;;;;;5013253;28;20105;-71
2022/08/15 02:12:00;;;;;;;14.07;12.48;;;18.80;81.50;;;;;;5013087;28;20387;-70
2022/08/15 02:14:27;;;;;;;17.08;12.85;;;18.70;81.70;;;;;;5013329;28;20395;-70
2022/08/15 02:16:53;;;;;;;14.25;12.05;;;18.70;82.00;;;;;;5013172;28;20022;-70
2022/08/15 02:19:18;;;;;;;13.80;11.60;;;18.60;82.00;;;;;;5012958;28;20542;-69
2022/08/15 02:21:46;;;;;;;14.05;11.63;;;18.70;82.00;;;;;;5012959;28;20080;-70
2022/08/15 02:24:15;;;;;;;14.10;12.60;;;18.60;81.70;;;;;;5012856;28;20092;-71
2022/08/15 02:26:41;;;;;;;13.85;12.05;;;18.60;81.80;;;;;;5012885;28;20156;-70
2022/08/15 02:29:07;;;;;;;16.67;13.43;;;18.50;82.00;;;;;;5013134;28;20022;-71
2022/08/15 02:31:33;;;;;;;14.18;12.43;;;18.60;81.90;;;;;;5012883;28;20028;-71
2022/08/15 02:34:00;;;;;;;14.43;12.57;;;18.50;82.10;;;;;;5012850;28;20029;-71
2022/08/15 02:36:29;;;;;;;16.38;12.75;;;18.50;82.10;;;;;;5012686;28;20553;-71
2022/08/15 02:38:58;;;;;;;16.58;12.30;;;18.40;82.40;;;;;;4994848;28;20048;-70
2022/08/15 02:41:31;;;;;;;14.32;12.63;;;18.40;82.50;;;;;;5012713;28;20030;-70
2022/08/15 02:43:58;;;;;;;15.32;12.50;;;18.40;82.60;;;;;;5012937;28;20057;-70
2022/08/15 02:46:23;;;;;;;16.20;13.52;;;18.30;82.80;;;;;;5012528;28;20030;-70
2022/08/15 02:48:50;;;;;;;15.00;13.35;;;18.30;83.00;;;;;;5012665;28;20353;-70
2022/08/15 02:51:18;;;;;;;13.93;12.43;;;18.20;83.10;;;;;;5012373;28;20445;-71
2022/08/15 02:53:51;;;;;;;13.75;12.25;;;18.20;83.00;;;;;;5012393;28;20014;-72
2022/08/15 02:56:20;;;;;;;13.10;11.75;;;18.20;83.00;;;;;;5012448;28;20033;-71
2022/08/15 02:58:47;;;;;;;15.75;13.40;;;18.20;83.10;;;;;;5012023;28;20095;-70
2022/08/15 03:01:13;;;;;;;13.00;11.68;;;18.10;83.10;;;;;;5012338;28;20026;-71
2022/08/15 03:03:41;;;;;;;16.75;14.80;;;18.10;83.10;;;;;;5012223;28;20026;-71
2022/08/15 03:06:09;;;;;;;426.00;299.00;;;18.10;83.30;;;;;;5012089;28;20572;-71
2022/08/15 03:08:36;;;;;;;37.85;26.13;;;18.00;83.50;;;;;;5010738;28;20038;-70
2022/08/15 03:11:04;;;;;;;38.17;25.40;;;18.00;83.50;;;;;;5012212;28;20076;-70
2022/08/15 03:13:31;;;;;;;59.13;36.63;;;18.00;83.30;;;;;;5012040;28;20030;-71
2022/08/15 03:15:57;;;;;;;395.38;243.57;;;17.90;83.50;;;;;;5011888;28;20026;-70
2022/08/15 03:18:25;;;;;;;235.63;126.32;;;18.00;83.70;;;;;;5011660;28;20522;-69
2022/08/15 03:20:51;;;;;;;140.40;73.43;;;18.00;83.60;;;;;;5011873;28;20034;-70
2022/08/15 03:23:20;;;;;;;24.58;16.95;;;18.00;83.50;;;;;;4994311;28;20022;-67
2022/08/15 03:25:51;;;;;;;64.35;35.03;;;17.90;83.40;;;;;;5011679;28;20105;-70
2022/08/15 03:28:23;;;;;;;14.60;13.20;;;18.00;83.30;;;;;;5011716;28;20032;-69
2022/08/15 03:30:49;;;;;;;18.52;14.65;;;18.00;83.40;;;;;;4993923;28;20149;-70
2022/08/15 03:33:16;;;;;;;20.92;15.90;;;18.00;83.40;;;;;;5011320;28;20026;-67
2022/08/15 03:35:45;;;;;;;15.05;13.40;;;17.90;83.30;;;;;;5011755;28;20080;-70
2022/08/15 03:38:11;;;;;;;15.40;13.82;;;17.90;83.10;;;;;;4993931;28;20034;-70
2022/08/15 03:40:38;;;;;;;14.20;12.80;;;17.90;83.30;;;;;;5011657;28;20411;-69
2022/08/15 03:43:12;;;;;;;20.92;14.05;;;17.90;83.30;;;;;;5011773;28;20232;-68
2022/08/15 03:45:42;;;;;;;14.55;13.15;;;17.90;83.40;;;;;;5011517;28;20125;-69
2022/08/15 03:48:08;;;;;;;16.77;13.70;;;17.90;83.40;;;;;;5011549;28;20022;-70
2022/08/15 03:50:33;;;;;;;16.15;12.75;;;17.90;83.40;;;;;;5011662;28;20030;-69
2022/08/15 03:53:02;;;;;;;15.98;13.15;;;17.80;83.50;;;;;;5011540;28;20471;-70
2022/08/15 03:55:30;;;;;;;14.65;13.15;;;17.90;83.50;;;;;;5011694;28;20033;-70
2022/08/15 03:57:56;;;;;;;15.70;13.30;;;17.90;83.50;;;;;;5011136;28;20050;-69
2022/08/15 04:00:29;;;;;;;15.82;11.88;;;18.00;83.50;;;;;;5011461;28;20416;-70
2022/08/15 04:03:14;;;;;;;15.18;13.50;;;18.00;83.20;;;;;;4993901;28;20498;-70
2022/08/15 04:05:41;;;;;;;15.90;13.50;;;17.90;83.20;;;;;;5011415;28;20095;-70
2022/08/15 04:08:09;;;;;;;14.80;12.07;;;17.90;83.20;;;;;;5011302;28;20026;-70
2022/08/15 04:10:36;;;;;;;13.45;12.05;;;18.00;83.10;;;;;;5011411;28;20022;-70
2022/08/15 04:13:04;;;;;;;13.55;12.20;;;18.00;83.10;;;;;;5011469;28;20291;-71
2022/08/15 04:15:30;;;;;;;16.25;12.57;;;18.10;82.80;;;;;;5011255;28;20033;-71
2022/08/15 04:17:56;;;;;;;15.57;13.38;;;18.10;82.60;;;;;;4993545;28;20395;-71
2022/08/15 04:20:23;;;;;;;16.55;12.73;;;18.30;82.20;;;;;;5011446;28;20042;-71
2022/08/15 04:22:49;;;;;;;13.63;12.18;;;18.30;82.00;;;;;;5011452;28;20026;-72
2022/08/15 04:25:37;;;;;;;13.07;11.50;;;18.50;81.80;;;;;;5011387;28;20034;-72
2022/08/15 04:28:05;;;;;;;13.00;11.45;;;18.60;81.60;;;;;;5011119;28;20464;-68
2022/08/15 04:30:39;;;;;;;12.75;11.40;;;19.10;80.10;;;;;;5011273;28;20098;-71
2022/08/15 04:33:08;;;;;;;13.90;10.13;;;19.80;77.50;;;;;;4993941;28;20025;-72
2022/08/15 04:35:35;;;;;;;14.55;10.55;;;20.70;74.80;;;;;;5011102;28;20484;-71
2022/08/15 04:38:00;;;;;;;12.32;9.45;;;21.70;71.90;;;;;;5011221;28;20030;-71
2022/08/15 04:40:28;;;;;;;10.95;8.82;;;22.60;68.20;;;;;;5011236;28;20022;-70
2022/08/15 04:42:54;;;;;;;11.40;8.45;;;23.50;65.40;;;;;;4993629;28;20028;-69
2022/08/15 04:45:22;;;;;;;11.75;10.35;;;24.00;61.90;;;;;;5012626;28;20042;-71
2022/08/15 04:47:51;;;;;;;12.95;9.50;;;24.30;60.80;;;;;;5014259;28;20041;-70
2022/08/15 04:50:17;;;;;;;10.00;8.80;;;24.30;60.70;;;;;;5014727;28;20022;-67
2022/08/15 04:52:54;;;;;;;12.45;9.32;;;24.40;61.00;;;;;;5014511;28;20030;-71
2022/08/15 04:55:24;;;;;;;11.20;8.77;;;25.00;58.90;;;;;;5014693;28;20034;-71
2022/08/15 04:57:50;;;;;;;10.13;8.85;;;25.60;57.20;;;;;;4996766;28;20061;-70
2022/08/15 05:00:18;;;;;;;10.50;9.00;;;26.80;53.70;;;;;;5014447;28;20072;-69
2022/08/15 05:03:08;;;;;;;14.45;9.27;;;26.70;52.80;;;;;;5014247;28;20080;-68
2022/08/15 05:05:36;;;;;;;12.00;9.20;;;26.00;54.50;;;;;;4996396;28;20559;-70
2022/08/15 05:08:02;;;;;;;11.45;9.45;;;26.10;54.10;;;;;;5014200;28;20052;-70
2022/08/15 05:10:28;;;;;;;10.23;9.18;;;25.50;55.30;;;;;;5014285;28;20046;-69
2022/08/15 05:12:54;;;;;;;12.70;8.77;;;25.20;56.60;;;;;;5014108;28;20029;-71
2022/08/15 05:15:21;;;;;;;14.15;9.23;;;26.60;53.70;;;;;;5013797;28;20105;-71
2022/08/15 05:17:48;;;;;;;8.57;7.78;;;27.20;51.30;;;;;;5014179;28;20064;-72
2022/08/15 05:20:17;;;;;;;10.27;7.90;;;28.70;48.80;;;;;;5014000;28;20120;-72
2022/08/15 05:22:58;;;;;;;9.27;8.40;;;29.40;46.20;;;;;;5014042;28;20054;-72
2022/08/15 05:25:24;;;;;;;11.20;8.38;;;29.90;44.80;;;;;;5013878;28;20034;-73
2022/08/15 05:27:51;;;;;;;7.90;7.07;;;30.10;43.80;;;;;;4996193;28;20032;-72
2022/08/15 05:30:18;;;;;;;11.07;8.13;;;30.20;44.20;;;;;;5014076;28;20042;-72
2022/08/15 05:32:44;;;;;;;10.90;7.95;;;30.90;42.50;;;;;;5014087;28;20022;-73
2022/08/15 05:35:10;;;;;;;8.25;6.68;;;31.40;41.40;;;;;;5011427;28;20037;-71
2022/08/15 05:37:36;;;;;;;9.60;7.85;;;31.10;41.80;;;;;;4994158;28;20511;-71
2022/08/15 05:40:06;;;;;;;8.85;7.70;;;30.90;41.90;;;;;;5001535;28;20029;-69
2022/08/15 05:42:50;;;;;;;10.40;7.63;;;30.40;43.40;;;;;;5014008;28;20030;-68
2022/08/15 05:45:33;;;;;;;11.10;8.20;;;29.90;43.40;;;;;;5013543;28;20496;-73
2022/08/15 05:48:18;;;;;;;22.67;19.75;;;29.00;45.30;;;;;;5013442;28;20033;-71
2022/08/15 05:51:09;;;;;;;10.15;8.95;;;28.20;47.80;;;;;;5013634;28;20022;-73
2022/08/15 05:54:01;;;;;;;9.18;7.30;;;27.60;49.20;;;;;;5013543;28;20034;-72
2022/08/15 05:56:45;;;;;;;9.43;7.95;;;26.80;51.80;;;;;;5012957;28;20026;-72
2022/08/15 05:59:15;;;;;;;12.10;8.68;;;25.70;55.00;;;;;;5013139;28;20088;-72
2022/08/15 06:01:47;;;;;;;14.43;9.40;;;25.00;57.40;;;;;;5013313;28;20032;-70
2022/08/15 06:04:28;;;;;;;11.63;8.40;;;24.30;60.10;;;;;;5013202;28;20022;-71
2022/08/15 06:06:55;;;;;;;14.35;9.52;;;23.60;62.90;;;;;;5013129;28;20108;-72
2022/08/15 06:09:23;;;;;;;18.23;10.35;;;23.40;64.20;;;;;;5012703;28;20030;-70
2022/08/15 06:11:53;;;;;;;12.38;9.90;;;23.20;64.90;;;;;;5013199;28;20030;-71
2022/08/15 06:14:39;;;;;;;32.10;15.13;;;23.00;66.10;;;;;;5013160;28;20437;-67
2022/08/15 06:17:23;;;;;;;19.00;10.50;;;23.00;66.00;;;;;;5012580;28;20068;-65
2022/08/15 06:19:52;;;;;;;14.20;11.02;;;22.60;67.30;;;;;;5012790;28;20109;-66
2022/08/15 06:22:38;;;;;;;42.92;25.95;;;22.50;67.80;;;;;;5012964;28;20168;-65
2022/08/15 06:25:28;;;;;;;21.75;9.95;;;22.70;67.30;;;;;;5012702;28;20038;-65
2022/08/15 06:28:30;;;;;;;12.73;10.65;;;23.10;66.20;;;;;;5011926;28;20030;-66
2022/08/15 06:31:16;;;;;;;15.95;9.65;;;23.20;66.20;;;;;;4995304;28;20488;-66
2022/08/15 06:34:02;;;;;;;12.82;9.27;;;23.40;65.60;;;;;;5012715;28;20022;-65
2022/08/15 06:36:43;;;;;;;19.95;10.95;;;24.40;63.10;;;;;;5012664;28;20054;-65
2022/08/15 06:39:15;;;;;;;12.48;8.30;;;26.30;57.60;;;;;;5012512;28;20109;-66
2022/08/15 06:41:55;;;;;;;11.75;8.63;;;28.10;52.60;;;;;;5012405;28;20029;-66
2022/08/15 06:44:33;;;;;;;15.40;8.38;;;29.30;48.40;;;;;;5012184;28;20068;-66
2022/08/15 06:47:03;;;;;;;16.27;9.27;;;28.40;50.30;;;;;;4994400;28;20030;-67
2022/08/15 06:49:38;;;;;;;10.27;8.40;;;28.60;49.90;;;;;;5012457;28;20109;-67
2022/08/15 06:52:06;;;;;;;12.27;7.32;;;29.20;48.40;;;;;;5012859;28;20111;-68
2022/08/15 06:54:51;;;;;;;14.52;7.90;;;30.50;46.20;;;;;;5027048;28;20026;-79
2022/08/15 06:57:21;;;;;;;9.57;7.18;;;32.70;40.70;;;;;;5004887;28;20030;-79
2022/08/15 07:18:03;;;;;;;10.68;6.90;;;34.80;36.40;;;;;;5006279;28;20034;-78
2022/08/15 07:25:08;;;;;;;6.50;5.80;;;35.60;34.90;;;;;;4977288;28;20030;-77
2022/08/15 07:28:06;;;;;;;8.95;6.25;;;37.30;32.50;;;;;;5003158;23;20469;-75
2022/08/15 07:30:46;;;;;;;11.25;6.68;;;37.10;32.40;;;;;;4991621;28;20126;-76
2022/08/15 07:33:46;;;;;;;10.65;6.53;;;36.90;33.40;;;;;;4987692;28;20038;-76
2022/08/15 07:36:15;;;;;;;11.23;6.15;;;36.50;33.80;;;;;;4989849;28;20492;-76
2022/08/15 07:38:41;;;;;;;9.02;7.05;;;35.90;34.80;;;;;;4987272;28;20035;-75
2022/08/15 07:41:33;;;;;;;15.88;7.55;;;36.20;34.40;;;;;;4985881;28;20030;-74
2022/08/15 07:44:20;;;;;;;10.88;7.15;;;36.30;34.30;;;;;;4980102;28;20105;-75
2022/08/15 07:47:22;;;;;;;7.68;6.10;;;35.40;35.80;;;;;;4980172;28;20038;-76
2022/08/15 07:50:23;;;;;;;10.35;6.63;;;35.10;36.40;;;;;;4974866;28;20412;-76
2022/08/15 07:53:24;;;;;;;12.15;7.28;;;35.90;35.50;;;;;;4991282;28;20019;-76
2022/08/15 07:56:12;;;;;;;9.20;7.18;;;36.20;34.30;;;;;;4982607;28;20046;-74
2022/08/15 07:58:40;;;;;;;10.77;6.65;;;35.30;36.20;;;;;;4991661;28;20026;-76
2022/08/15 08:01:15;;;;;;;9.88;6.85;;;34.70;36.90;;;;;;4993091;28;20033;-76
2022/08/15 08:03:45;;;;;;;8.85;6.22;;;35.30;36.00;;;;;;4992102;28;20041;-77
2022/08/15 08:06:37;;;;;;;13.48;7.13;;;36.90;34.40;;;;;;4992637;28;20137;-76
2022/08/15 08:09:14;;;;;;;11.82;6.38;;;36.90;33.40;;;;;;4991822;28;20152;-76
2022/08/15 08:11:46;;;;;;;9.43;6.00;;;36.40;33.20;;;;;;4987943;28;20081;-77
2022/08/15 08:14:31;;;;;;;11.10;6.55;;;36.10;33.80;;;;;;4980801;28;20026;-76
2022/08/15 08:17:09;;;;;;;9.38;6.18;;;36.20;33.90;;;;;;4992448;28;20045;-76
2022/08/15 08:20:08;;;;;;;10.27;6.30;;;35.70;34.50;;;;;;4993323;28;20062;-76
2022/08/15 08:25:48;;;;;;;7.57;6.38;;;36.40;32.70;;;;;;4996699;28;20105;-75
2022/08/15 08:29:06;;;;;;;;;;;;;;;;;;;;;
2022/08/15 08:32:08;;;;;;;6.85;6.22;;;37.90;31.30;;;;;;4981377;28;20480;-77
2022/08/15 08:35:27;;;;;;;9.50;6.13;;;37.60;31.30;;;;;;4999204;28;20031;-77
2022/08/15 08:42:02;;;;;;;8.35;5.90;;;38.00;31.50;;;;;;4934512;29;20043;-76
2022/08/15 08:44:44;;;;;;;10.93;6.70;;;39.20;29.40;;;;;;4900211;29;20024;-73
2022/08/15 08:47:16;;;;;;;16.85;7.03;;;36.70;32.60;;;;;;4990016;28;20129;-74
2022/08/15 08:50:38;;;;;;;6.70;6.00;;;35.50;34.60;;;;;;4994909;28;20019;-76
2022/08/15 08:53:33;;;;;;;6.93;6.20;;;35.80;34.60;;;;;;4974748;28;20047;-74
2022/08/15 08:56:14;;;;;;;12.40;5.97;;;36.20;34.10;;;;;;4992627;28;20092;-77
2022/08/15 08:59:00;;;;;;;;;;;36.40;33.40;;;;;;4994441;28;20468;-75
2022/08/15 09:01:26;;;;;;;8.00;6.70;;;35.30;34.70;;;;;;4994727;28;19913;-77
2022/08/15 09:04:02;;;;;;;12.52;6.90;;;33.90;37.20;;;;;;4993726;28;20030;-75
2022/08/15 09:06:33;;;;;;;7.90;6.75;;;34.90;35.70;;;;;;4993501;28;20030;-75
2022/08/15 09:09:29;;;;;;;8.52;6.90;;;34.70;35.70;;;;;;4984521;28;20405;-74
2022/08/15 09:15:07;;;;;;;9.57;7.72;;;34.00;36.90;;;;;;4995227;28;20114;-75
2022/08/15 09:17:36;;;;;;;16.17;10.88;;;33.90;37.50;;;;;;4994197;23;20034;-75
2022/08/15 09:26:41;;;;;;;11.57;7.55;;;34.60;36.30;;;;;;4983168;28;20089;-75
2022/08/15 09:29:18;;;;;;;9.23;7.57;;;33.30;38.80;;;;;;5018059;22;20081;-72
2022/08/15 09:31:58;;;;;;;9.27;7.18;;;33.20;39.20;;;;;;4971858;28;20053;-74
2022/08/15 09:34:33;;;;;;;11.35;8.57;;;33.00;39.80;;;;;;4972914;28;20073;-73
2022/08/15 09:37:25;;;;;;;12.05;7.40;;;33.30;39.50;;;;;;4974577;28;20058;-73
2022/08/15 09:40:16;;;;;;;11.60;7.50;;;33.40;39.20;;;;;;4970711;28;20039;-73
2022/08/15 09:42:51;;;;;;;9.48;7.05;;;33.40;38.70;;;;;;4954532;29;20323;-73
2022/08/15 09:45:51;;;;;;;10.50;7.35;;;33.40;38.90;;;;;;4955380;29;20040;-73
2022/08/15 09:49:18;;;;;;;9.55;7.20;;;33.50;38.90;;;;;;4955331;28;20035;-73
2022/08/15 09:51:49;;;;;;;14.18;8.10;;;33.50;39.40;;;;;;4899502;29;20039;-73
2022/08/15 09:54:23;;;;;;;9.13;7.10;;;33.10;40.10;;;;;;4954829;29;20046;-72
2022/08/15 09:56:50;;;;;;;11.75;7.50;;;33.20;40.10;;;;;;4953897;28;20405;-71
2022/08/15 09:59:18;;;;;;;12.02;7.10;;;33.80;38.30;;;;;;4954435;28;20063;-71
2022/08/15 10:01:58;;;;;;;10.88;7.07;;;33.80;38.60;;;;;;4969845;28;20032;-72
2022/08/15 10:05:09;;;;;;;7.47;6.55;;;33.70;38.10;;;;;;4953699;28;20114;-72
2022/08/15 10:07:59;;;;;;;16.40;6.90;;;33.20;39.20;;;;;;4953510;29;20082;-70
2022/08/15 10:10:45;;;;;;;10.98;7.25;;;33.70;38.60;;;;;;4954723;28;20035;-71
2022/08/15 10:13:22;;;;;;;15.32;7.05;;;33.60;38.20;;;;;;4953931;28;20082;-71
2022/08/15 10:15:48;;;;;;;13.93;7.03;;;32.80;39.90;;;;;;4954660;29;20031;-70
2022/08/15 10:18:23;;;;;;;9.30;7.18;;;32.40;39.70;;;;;;4954856;29;20033;-71
2022/08/15 10:21:20;;;;;;;10.88;7.82;;;31.90;40.90;;;;;;4953713;29;20038;-71
2022/08/15 10:23:51;;;;;;;9.13;7.53;;;31.50;41.80;;;;;;4954414;28;20051;-71
2022/08/15 10:26:25;;;;;;;13.93;7.65;;;31.10;42.80;;;;;;4953483;28;20027;-72
2022/08/15 10:29:11;;;;;;;11.43;7.55;;;30.90;43.30;;;;;;4952989;28;20023;-72
2022/08/15 10:32:09;;;;;;;12.75;7.72;;;31.00;43.20;;;;;;4969214;28;20039;-73
2022/08/15 10:35:16;;;;;;;14.25;7.20;;;30.90;43.90;;;;;;4952383;29;20502;-71
2022/08/15 10:37:59;;;;;;;14.27;7.53;;;31.30;43.00;;;;;;4894556;29;20029;-72
2022/08/15 10:40:34;;;;;;;15.57;7.35;;;31.10;42.90;;;;;;4951462;28;20540;-72
2022/08/15 10:43:40;;;;;;;10.50;7.70;;;31.20;43.00;;;;;;4953573;28;20051;-72
2022/08/15 10:46:25;;;;;;;12.00;7.20;;;31.50;41.70;;;;;;4934948;29;20141;-72
2022/08/15 10:49:13;;;;;;;11.90;7.10;;;31.20;42.40;;;;;;4930390;29;20079;-72
2022/08/15 10:52:01;;;;;;;7.78;6.85;;;31.20;42.60;;;;;;4933859;29;20031;-72
2022/08/15 10:54:55;;;;;;;18.73;7.18;;;31.10;41.80;;;;;;4935129;29;20035;-70
2022/08/15 10:57:24;;;;;;;9.32;7.05;;;31.30;41.90;;;;;;4934686;29;20034;-74
2022/08/15 10:59:54;;;;;;;8.45;7.32;;;31.00;43.50;;;;;;4938987;28;20050;-72
2022/08/15 11:02:46;;;;;;;7.35;6.72;;;31.10;42.60;;;;;;4965470;28;20024;-71
2022/08/15 11:05:15;;;;;;;8.35;6.95;;;31.20;42.50;;;;;;4934729;29;20019;-73
2022/08/15 11:08:01;;;;;;;12.07;7.38;;;31.00;41.80;;;;;;4934444;29;20114;-73
2022/08/15 11:10:30;;;;;;;21.27;15.52;;;30.90;42.50;;;;;;4934391;29;20478;-70
2022/08/15 11:13:03;;;;;;;10.05;8.07;;;30.60;43.20;;;;;;4934624;29;20114;-71
2022/08/15 11:15:33;;;;;;;10.70;7.90;;;30.30;44.00;;;;;;4934318;29;20067;-70
2022/08/15 11:18:08;;;;;;;302.50;228.57;;;29.90;45.00;;;;;;4934365;28;20024;-72
2022/08/15 11:20:45;;;;;;;36.45;24.45;;;29.90;46.20;;;;;;4965187;28;20035;-70
2022/08/15 11:23:11;;;;;;;9.32;8.43;;;30.00;45.40;;;;;;4934450;29;20023;-73
2022/08/15 11:25:40;;;;;;;41.92;29.27;;;30.10;45.30;;;;;;4934479;29;20114;-71
2022/08/15 11:28:20;;;;;;;21.10;14.55;;;29.90;45.40;;;;;;4934251;29;20418;-70
2022/08/15 11:30:47;;;;;;;344.30;308.05;;;30.00;45.80;;;;;;4948899;29;20040;-72
2022/08/15 11:33:27;;;;;;;156.32;121.20;;;29.90;45.60;;;;;;4940488;29;20015;-71
2022/08/15 11:36:03;;;;;;;60.30;42.22;;;29.90;45.60;;;;;;4953725;28;20027;-77
2022/08/15 11:38:31;;;;;;;47.65;34.20;;;29.90;45.40;;;;;;4953592;29;20494;-73
2022/08/15 11:40:59;;;;;;;34.33;25.33;;;29.90;45.20;;;;;;4953828;28;20544;-74
2022/08/15 11:43:25;;;;;;;38.20;29.33;;;29.60;45.10;;;;;;4968267;28;20490;-74
2022/08/15 11:45:56;;;;;;;29.85;21.58;;;29.60;45.20;;;;;;4957610;28;20027;-73
2022/08/15 11:48:34;;;;;;;17.90;14.73;;;29.50;45.60;;;;;;4972874;28;20031;-73
2022/08/15 11:51:02;;;;;;;23.33;13.93;;;29.40;46.20;;;;;;4951645;28;20043;-74
2022/08/15 11:53:38;;;;;;;20.33;17.17;;;29.40;46.90;;;;;;4956945;28;20027;-76
2022/08/15 11:56:04;;;;;;;72.95;64.95;;;29.30;48.20;;;;;;4962864;28;20022;-73
2022/08/15 11:58:44;;;;;;;38.78;28.73;;;29.20;48.90;;;;;;4964633;28;20089;-74
2022/08/15 12:01:27;;;;;;;18.55;15.55;;;29.20;49.20;;;;;;4959253;28;20027;-74
2022/08/15 12:04:05;;;;;;;26.58;20.35;;;29.30;49.80;;;;;;4960919;28;20023;-73
2022/08/15 12:06:41;;;;;;;34.75;22.85;;;29.40;51.00;;;;;;4964131;28;20034;-74
2022/08/15 12:09:14;;;;;;;34.63;25.95;;;29.20;50.60;;;;;;4964136;28;20047;-73
2022/08/15 12:11:44;;;;;;;11.05;8.30;;;29.20;51.30;;;;;;4959089;28;20046;-73
2022/08/15 12:14:27;;;;;;;12.57;7.60;;;29.10;51.50;;;;;;4972246;28;20501;-74
2022/08/15 12:17:00;;;;;;;254.70;227.10;;;29.00;53.90;;;;;;4937513;29;20036;-73
2022/08/15 12:19:34;;;;;;;96.97;80.38;;;28.80;53.70;;;;;;4937441;29;20051;-73
2022/08/15 12:22:08;;;;;;;116.75;90.43;;;28.70;55.50;;;;;;4936220;29;20028;-73
2022/08/15 12:24:36;;;;;;;24.48;17.90;;;28.50;54.00;;;;;;4937853;29;20024;-74
2022/08/15 12:27:01;;;;;;;15.90;11.05;;;28.20;53.90;;;;;;4937814;29;20462;-74
2022/08/15 12:29:30;;;;;;;14.43;11.68;;;28.20;52.80;;;;;;4936929;29;20105;-73
2022/08/15 12:31:58;;;;;;;126.90;100.07;;;28.20;54.10;;;;;;4937621;29;20051;-73
2022/08/15 12:34:27;;;;;;;56.47;49.33;;;28.20;55.90;;;;;;4951154;29;20031;-71
2022/08/15 12:36:53;;;;;;;32.50;25.88;;;28.30;55.40;;;;;;4956364;28;20485;-74
2022/08/15 12:39:20;;;;;;;22.88;17.00;;;28.40;54.80;;;;;;4956250;28;20033;-74
2022/08/15 12:41:49;;;;;;;18.25;14.68;;;28.60;53.40;;;;;;4958177;29;20038;-79
2022/08/15 12:44:31;;;;;;;12.20;7.97;;;28.80;52.70;;;;;;4958175;28;20024;-81
2022/08/15 12:47:00;;;;;;;23.02;18.80;;;28.90;52.30;;;;;;4958403;28;20089;-77
2022/08/15 12:49:26;;;;;;;27.23;15.18;;;29.00;51.80;;;;;;4979536;28;20055;-77
2022/08/15 12:51:52;;;;;;;26.42;7.15;;;29.20;51.10;;;;;;4975673;28;20050;-77
2022/08/15 12:54:18;;;;;;;28.67;17.92;;;29.50;50.30;;;;;;4970552;28;20391;-76
2022/08/15 12:56:44;;;;;;;18.55;9.73;;;29.70;49.70;;;;;;4956335;29;20397;-75
2022/08/15 12:59:11;;;;;;;15.55;8.10;;;30.00;48.50;;;;;;4948547;28;20016;-77
2022/08/15 13:01:38;;;;;;;21.00;12.13;;;30.10;48.60;;;;;;4956312;28;20102;-78
2022/08/15 13:04:06;;;;;;;19.50;10.10;;;30.20;48.10;;;;;;4956592;28;20498;-75
2022/08/15 13:06:46;;;;;;;19.35;10.65;;;30.10;48.40;;;;;;4953376;28;20105;-77
2022/08/15 13:09:13;;;;;;;16.08;9.00;;;30.30;48.00;;;;;;4945555;28;20026;-77
2022/08/15 13:11:41;;;;;;;18.80;10.38;;;30.40;47.50;;;;;;4946049;28;20051;-79
2022/08/15 13:14:08;;;;;;;23.83;7.20;;;30.30;48.00;;;;;;4937163;29;20031;-77
2022/08/15 13:16:35;;;;;;;12.20;6.30;;;30.30;47.80;;;;;;4937019;29;20028;-78
2022/08/15 13:19:12;;;;;;;7.75;4.85;;;30.20;47.70;;;;;;4936578;29;20028;-77
2022/08/15 13:24:22;;;;;;;8.40;7.10;;;30.00;47.10;;;;;;4950476;29;20162;-77
2022/08/15 13:26:48;;;;;;;13.10;7.65;;;30.20;46.60;;;;;;4937378;29;20111;-76
2022/08/15 13:29:20;;;;;;;10.32;6.47;;;30.20;46.60;;;;;;4943032;28;20505;-75
2022/08/15 13:31:47;;;;;;;9.45;6.35;;;30.20;46.10;;;;;;4961701;28;20146;-77
2022/08/15 13:34:13;;;;;;;10.57;6.03;;;30.20;45.70;;;;;;4962767;28;20027;-75
2022/08/15 13:36:39;;;;;;;9.23;5.50;;;30.00;45.50;;;;;;4945059;28;20078;-78
2022/08/15 13:39:12;;;;;;;11.48;5.45;;;30.00;47.10;;;;;;4953553;28;20035;-79
2022/08/15 13:41:38;;;;;;;7.18;5.65;;;29.90;47.50;;;;;;4969404;28;20055;-76
2022/08/15 13:44:06;;;;;;;10.77;6.75;;;30.00;47.70;;;;;;4953629;28;20416;-77
2022/08/15 13:46:34;;;;;;;9.07;6.28;;;30.10;47.70;;;;;;4962312;28;20400;-78
2022/08/15 13:49:02;;;;;;;9.50;5.88;;;30.20;48.20;;;;;;4963677;28;20035;-79
2022/08/15 13:51:32;;;;;;;10.48;5.90;;;30.40;47.30;;;;;;4965926;28;20482;-79
2022/08/15 13:53:58;;;;;;;9.98;6.05;;;30.40;47.30;;;;;;4963912;28;20034;-76
2022/08/15 13:56:25;;;;;;;10.90;6.05;;;30.70;46.40;;;;;;4947020;28;20027;-78
2022/08/15 13:58:51;;;;;;;8.68;5.57;;;31.10;45.70;;;;;;4936107;29;20375;-77